ASA181 KSEA-LIRF
Flight info
| Callsign | ASA181 |
|---|---|
| Flight time | N/A |
| Altitude | 35000 |
| Route | ALPSE DCT YDC DCT WELLF DCT YEGGA DCT RUBSU DCT YSF/N0499F370 DCT 60N104W 62N100W 65N090W 66N080W 67N070W/M085F370 DCT CANEL DCT 68N060W 68N050W 67N040W/M085F390 64N030W 61N020W DCT ERAKA/N0487F390 DCT ETSOM DCT MAKUX DCT SOSIM L15 MOTOX DCT RUCAC DCT LESDO DCT BUBLI DCT LUVAL DCT SHARA DCT DEVDI DCT ODINA DCT EKPAL DCT TINKU DCT XIBIL |
| Aircraft | B789/H-SDE1E2E3FGHIJ2J3J4J5M1RWXY/LB1D1 |
Departure
| Time | N/A |
|---|---|
| Airport | Seattle–Tacoma International Airport (KSEA) |
Arrival
| Time | 2026-05-04 19:00 |
|---|---|
| Airport | Rome–Fiumicino Leonardo da Vinci International Airport (LIRF) |
| Time | Latitude | Longitude | Altitude | Speed | Heading |
|---|---|---|---|---|---|
| 2026-05-04 16:35 | 60.80576 | -102.47659 | 37113 ft | 492 kts | 43° |
| 2026-05-04 16:35 | 60.95366 | -102.18483 | 37120 ft | 490 kts | 44° |
| 2026-05-04 16:36 | 61.10085 | -101.89049 | 37114 ft | 491 kts | 44° |
| 2026-05-04 16:37 | 61.24657 | -101.59507 | 37112 ft | 490 kts | 44° |
| 2026-05-04 16:38 | 61.44072 | -101.19513 | 37085 ft | 491 kts | 45° |
| 2026-05-04 16:39 | 61.68201 | -100.68758 | 37107 ft | 490 kts | 45° |
| 2026-05-04 16:40 | 62.02407 | -99.93819 | 37070 ft | 490 kts | 53° |
| 2026-05-04 16:41 | 62.44026 | -98.78164 | 37046 ft | 491 kts | 53° |
| 2026-05-04 16:43 | 62.84856 | -97.59030 | 37048 ft | 491 kts | 54° |
| 2026-05-04 16:43 | 63.08791 | -96.86177 | 37040 ft | 491 kts | 55° |
| 2026-05-04 16:45 | 63.55681 | -95.36299 | 37028 ft | 492 kts | 56° |
| 2026-05-04 16:46 | 63.93606 | -94.07359 | 37013 ft | 493 kts | 57° |
| 2026-05-04 16:47 | 64.22874 | -93.02538 | 37000 ft | 488 kts | 58° |
| 2026-05-04 16:48 | 64.51291 | -91.95833 | 37005 ft | 486 kts | 60° |
| 2026-05-04 16:49 | 64.78702 | -90.87787 | 37001 ft | 482 kts | 60° |
| 2026-05-04 16:50 | 65.01793 | -89.86955 | 37009 ft | 479 kts | 73° |
| 2026-05-04 16:51 | 65.13845 | -88.96537 | 37020 ft | 481 kts | 73° |
| 2026-05-04 16:52 | 65.29102 | -87.74325 | 37005 ft | 481 kts | 74° |
| 2026-05-04 16:53 | 65.39812 | -86.82435 | 36996 ft | 476 kts | 75° |
| 2026-05-04 16:54 | 65.53302 | -85.57949 | 36990 ft | 484 kts | 77° |
| 2026-05-04 16:55 | 65.71817 | -83.66540 | 37001 ft | 489 kts | 78° |
| 2026-05-04 16:56 | 65.85451 | -82.04281 | 36997 ft | 490 kts | 81° |
| 2026-05-04 16:57 | 65.92810 | -81.06039 | 36998 ft | 491 kts | 82° |
| 2026-05-04 16:58 | 66.03499 | -79.74672 | 37018 ft | 493 kts | 74° |
| 2026-05-04 17:00 | 66.28315 | -77.79687 | 37046 ft | 497 kts | 76° |
| 2026-05-04 17:01 | 66.46048 | -76.24437 | 37096 ft | 500 kts | 78° |
| 2026-05-04 17:02 | 66.60080 | -74.88905 | 37114 ft | 502 kts | 79° |
| 2026-05-04 17:03 | 66.69872 | -73.85830 | 37141 ft | 505 kts | 79° |
| 2026-05-04 17:03 | 66.79057 | -72.81103 | 37173 ft | 508 kts | 81° |
| 2026-05-04 17:04 | 66.90214 | -71.40337 | 37208 ft | 511 kts | 82° |
| 2026-05-04 17:05 | 67.00285 | -69.97488 | 37232 ft | 513 kts | 75° |
| 2026-05-04 17:06 | 67.14582 | -68.93127 | 37226 ft | 518 kts | 74° |
| 2026-05-04 17:07 | 67.26693 | -67.98942 | 37214 ft | 521 kts | 75° |
| 2026-05-04 17:07 | 67.36914 | -67.15123 | 37214 ft | 523 kts | 75° |
| 2026-05-04 17:08 | 67.49438 | -66.06046 | 37318 ft | 529 kts | 76° |
| 2026-05-04 17:09 | 67.57427 | -65.32224 | 37419 ft | 528 kts | 77° |
| 2026-05-04 17:09 | 67.65066 | -64.58027 | 37478 ft | 531 kts | 77° |
| 2026-05-04 17:10 | 67.82855 | -62.68384 | 37467 ft | 533 kts | 78° |
| 2026-05-04 17:11 | 67.89390 | -61.91268 | 37467 ft | 537 kts | 79° |
| 2026-05-04 17:12 | 67.98489 | -60.74340 | 37435 ft | 539 kts | 85° |
| 2026-05-04 17:13 | 68.03337 | -58.74353 | 37412 ft | 543 kts | 87° |
| 2026-05-04 17:14 | 68.06211 | -57.12801 | 37383 ft | 545 kts | 89° |
| 2026-05-04 17:15 | 68.07331 | -55.90594 | 37379 ft | 548 kts | 90° |
| 2026-05-04 17:16 | 68.07419 | -54.27026 | 37323 ft | 553 kts | 91° |
| 2026-05-04 17:17 | 68.05869 | -52.62140 | 37310 ft | 555 kts | 92° |
| 2026-05-04 17:18 | 68.02655 | -50.96717 | 37289 ft | 558 kts | 94° |
| 2026-05-04 17:19 | 67.95391 | -49.32528 | 37332 ft | 559 kts | 102° |
| 2026-05-04 17:20 | 67.83096 | -47.69839 | 37353 ft | 561 kts | 102° |
| 2026-05-04 17:20 | 67.72806 | -46.48917 | 37282 ft | 563 kts | 103° |
| 2026-05-04 17:21 | 67.57695 | -44.89271 | 37278 ft | 565 kts | 105° |
| 2026-05-04 17:22 | 67.49525 | -44.09934 | 37287 ft | 565 kts | 106° |
| 2026-05-04 17:23 | 67.32034 | -42.52966 | 37300 ft | 567 kts | 107° |
| 2026-05-04 17:24 | 67.17842 | -41.36135 | 37345 ft | 570 kts | 108° |
| 2026-05-04 17:25 | 66.96286 | -39.83864 | 37458 ft | 567 kts | 126° |
| 2026-05-04 17:25 | 66.79836 | -39.16457 | 39430 ft | 559 kts | 123° |
| 2026-05-04 17:26 | 66.63185 | -38.50019 | 39425 ft | 557 kts | 124° |
| 2026-05-04 17:27 | 66.20765 | -36.89067 | 39390 ft | 551 kts | 126° |
| 2026-05-04 17:28 | 65.85983 | -35.65302 | 39383 ft | 550 kts | 127° |
| 2026-05-04 17:29 | 65.31515 | -33.84367 | 39347 ft | 557 kts | 128° |
| 2026-05-04 17:31 | 64.84444 | -32.39046 | 39310 ft | 553 kts | 130° |
| 2026-05-04 17:32 | 64.36447 | -31.00034 | 39274 ft | 551 kts | 131° |
| 2026-05-04 17:33 | 63.97683 | -29.90976 | 39258 ft | 552 kts | 118° |
| 2026-05-04 17:34 | 63.67928 | -28.69252 | 39241 ft | 552 kts | 121° |
| 2026-05-04 17:35 | 63.29149 | -27.20851 | 39246 ft | 552 kts | 122° |
| 2026-05-04 17:36 | 63.13342 | -26.63082 | 39244 ft | 551 kts | 122° |
| 2026-05-04 17:36 | 62.97201 | -26.05586 | 39260 ft | 551 kts | 123° |
| 2026-05-04 17:37 | 62.80881 | -25.48901 | 39261 ft | 549 kts | 123° |
| 2026-05-04 17:37 | 62.64315 | -24.92781 | 39260 ft | 551 kts | 124° |
| 2026-05-04 17:38 | 62.47463 | -24.37075 | 39269 ft | 552 kts | 124° |
| 2026-05-04 17:38 | 62.30370 | -23.81932 | 39263 ft | 554 kts | 125° |
| 2026-05-04 17:39 | 62.04387 | -23.00580 | 39256 ft | 550 kts | 126° |
| 2026-05-04 17:39 | 61.86923 | -22.47475 | 39254 ft | 550 kts | 126° |
| 2026-05-04 17:40 | 61.69227 | -21.94893 | 39251 ft | 549 kts | 127° |
| 2026-05-04 17:40 | 61.51324 | -21.42887 | 39250 ft | 548 kts | 127° |
| 2026-05-04 17:41 | 61.33307 | -20.91713 | 39237 ft | 547 kts | 127° |
| 2026-05-04 17:41 | 61.15120 | -20.41181 | 39237 ft | 546 kts | 128° |
| 2026-05-04 17:42 | 60.97532 | -19.90266 | 39225 ft | 544 kts | 114° |
| 2026-05-04 17:42 | 60.84069 | -19.34341 | 39217 ft | 546 kts | 117° |
| 2026-05-04 17:43 | 60.70325 | -18.79061 | 39190 ft | 544 kts | 117° |
| 2026-05-04 17:43 | 60.56410 | -18.24545 | 39177 ft | 545 kts | 118° |
| 2026-05-04 17:44 | 60.42208 | -17.70263 | 39165 ft | 546 kts | 118° |
| 2026-05-04 17:44 | 60.27727 | -17.16227 | 39161 ft | 547 kts | 119° |
| 2026-05-04 17:45 | 60.15535 | -16.71719 | 39150 ft | 547 kts | 119° |
| 2026-05-04 17:45 | 60.00666 | -16.18591 | 39134 ft | 543 kts | 120° |
| 2026-05-04 17:46 | 59.85575 | -15.65908 | 39129 ft | 546 kts | 120° |
| 2026-05-04 17:46 | 59.70335 | -15.13901 | 39124 ft | 546 kts | 121° |
| 2026-05-04 17:47 | 59.54877 | -14.62325 | 39102 ft | 543 kts | 121° |
| 2026-05-04 17:47 | 59.39378 | -14.11736 | 39102 ft | 544 kts | 122° |
| 2026-05-04 17:48 | 59.23542 | -13.61162 | 39090 ft | 544 kts | 122° |
| 2026-05-04 17:48 | 59.07525 | -13.11096 | 39091 ft | 544 kts | 123° |
| 2026-05-04 17:49 | 58.91350 | -12.61603 | 39090 ft | 542 kts | 123° |
| 2026-05-04 17:49 | 58.75389 | -12.13758 | 39126 ft | 537 kts | 124° |
| 2026-05-04 17:50 | 58.58932 | -11.65425 | 39084 ft | 540 kts | 124° |
| 2026-05-04 17:50 | 58.42294 | -11.17543 | 39093 ft | 541 kts | 125° |
| 2026-05-04 17:51 | 58.25442 | -10.70011 | 39083 ft | 540 kts | 125° |
| 2026-05-04 17:51 | 58.08461 | -10.23055 | 39065 ft | 540 kts | 126° |
| 2026-05-04 17:52 | 57.94376 | -9.73536 | 39073 ft | 540 kts | 114° |
| 2026-05-04 17:52 | 57.87583 | -9.48384 | 39089 ft | 537 kts | 135° |
| 2026-05-04 17:52 | 57.75625 | -9.32181 | 39069 ft | 531 kts | 146° |
| 2026-05-04 17:53 | 57.51525 | -9.00276 | 39063 ft | 528 kts | 148° |
| 2026-05-04 17:53 | 57.27427 | -8.69083 | 39050 ft | 526 kts | 148° |
| 2026-05-04 17:54 | 57.03349 | -8.38447 | 39050 ft | 525 kts | 148° |
| 2026-05-04 17:54 | 56.79332 | -8.08373 | 39066 ft | 524 kts | 148° |
| 2026-05-04 17:55 | 56.55047 | -7.78445 | 39054 ft | 521 kts | 148° |
| 2026-05-04 17:55 | 56.31129 | -7.49425 | 39062 ft | 519 kts | 149° |
| 2026-05-04 17:56 | 56.06944 | -7.20531 | 39069 ft | 517 kts | 149° |
| 2026-05-04 17:56 | 55.83138 | -6.92516 | 39070 ft | 515 kts | 149° |
| 2026-05-04 17:57 | 55.59102 | -6.64651 | 39070 ft | 516 kts | 149° |
| 2026-05-04 17:57 | 55.35079 | -6.37210 | 39057 ft | 514 kts | 149° |
| 2026-05-04 17:58 | 55.11037 | -6.10148 | 39064 ft | 512 kts | 149° |
| 2026-05-04 17:58 | 54.87154 | -5.83650 | 39072 ft | 509 kts | 149° |
| 2026-05-04 17:59 | 54.63251 | -5.57505 | 39071 ft | 508 kts | 149° |
| 2026-05-04 18:00 | 54.27249 | -5.18813 | 39079 ft | 508 kts | 148° |
| 2026-05-04 18:00 | 54.03327 | -4.93546 | 39080 ft | 509 kts | 148° |
| 2026-05-04 18:00 | 53.93038 | -4.77575 | 39086 ft | 507 kts | 123° |
| 2026-05-04 18:01 | 53.84674 | -4.58143 | 39078 ft | 503 kts | 125° |
| 2026-05-04 18:01 | 53.68023 | -4.20229 | 39072 ft | 503 kts | 126° |
| 2026-05-04 18:02 | 53.42905 | -3.64290 | 39068 ft | 499 kts | 127° |
| 2026-05-04 18:02 | 53.24599 | -3.29034 | 39064 ft | 501 kts | 131° |
| 2026-05-04 18:03 | 53.06058 | -2.94198 | 39052 ft | 502 kts | 132° |
| 2026-05-04 18:03 | 52.88194 | -2.61120 | 39051 ft | 503 kts | 132° |
| 2026-05-04 18:04 | 52.69448 | -2.26888 | 39049 ft | 504 kts | 133° |
| 2026-05-04 18:05 | 52.41201 | -1.76184 | 39049 ft | 502 kts | 133° |
| 2026-05-04 18:05 | 52.22881 | -1.44510 | 39048 ft | 500 kts | 135° |
| 2026-05-04 18:06 | 51.97455 | -1.01721 | 39020 ft | 499 kts | 135° |
| 2026-05-04 18:06 | 51.78816 | -0.70767 | 39027 ft | 501 kts | 135° |
| 2026-05-04 18:07 | 51.64048 | -0.46541 | 39026 ft | 503 kts | 135° |
| 2026-05-04 18:07 | 51.54341 | -0.30748 | 39029 ft | 502 kts | 136° |
| 2026-05-04 18:08 | 51.44730 | -0.15209 | 39023 ft | 502 kts | 136° |
| 2026-05-04 18:08 | 51.35229 | 0.00074 | 39019 ft | 502 kts | 134° |
| 2026-05-04 18:09 | 51.25694 | 0.32485 | 39004 ft | 505 kts | 114° |
| 2026-05-04 18:09 | 51.15917 | 0.70501 | 39002 ft | 505 kts | 114° |
| 2026-05-04 18:10 | 51.05154 | 1.11512 | 38992 ft | 506 kts | 115° |
| 2026-05-04 18:10 | 50.94108 | 1.52818 | 38990 ft | 505 kts | 115° |
| 2026-05-04 18:11 | 50.78740 | 1.88521 | 38981 ft | 499 kts | 137° |
| 2026-05-04 18:11 | 50.58631 | 2.18728 | 38983 ft | 499 kts | 138° |
| 2026-05-04 18:12 | 50.38445 | 2.48592 | 38952 ft | 498 kts | 139° |
| 2026-05-04 18:12 | 50.18146 | 2.78241 | 38938 ft | 500 kts | 139° |
| 2026-05-04 18:13 | 50.08564 | 2.92118 | 38942 ft | 482 kts | 139° |
| 2026-05-04 18:13 | 49.98640 | 3.06392 | 38943 ft | 493 kts | 139° |
| 2026-05-04 18:13 | 49.77832 | 3.34477 | 38973 ft | 493 kts | 155° |
| 2026-05-04 18:14 | 49.65660 | 3.44303 | 38956 ft | 495 kts | 154° |
| 2026-05-04 18:14 | 49.41252 | 3.64044 | 38939 ft | 494 kts | 155° |
| 2026-05-04 18:15 | 48.92449 | 4.02978 | 38933 ft | 495 kts | 155° |
| 2026-05-04 18:16 | 48.70969 | 4.28340 | 38933 ft | 509 kts | 127° |
| 2026-05-04 18:16 | 48.54486 | 4.63098 | 38950 ft | 508 kts | 129° |
| 2026-05-04 18:17 | 48.29761 | 5.14954 | 38963 ft | 510 kts | 121° |
| 2026-05-04 18:17 | 48.21202 | 5.56043 | 38996 ft | 521 kts | 110° |
| 2026-05-04 18:18 | 48.16910 | 5.76942 | 38990 ft | 520 kts | 110° |
| 2026-05-04 18:18 | 48.08360 | 6.17999 | 38998 ft | 518 kts | 110° |
| 2026-05-04 18:19 | 47.94662 | 6.79173 | 38979 ft | 516 kts | 116° |
| 2026-05-04 18:19 | 47.83839 | 7.18919 | 38995 ft | 515 kts | 115° |
| 2026-05-04 18:20 | 47.70868 | 7.56298 | 39017 ft | 504 kts | 145° |
| 2026-05-04 18:20 | 47.58524 | 7.65474 | 39009 ft | 498 kts | 157° |
| 2026-05-04 18:20 | 47.46534 | 7.73961 | 39000 ft | 499 kts | 158° |
| 2026-05-04 18:21 | 47.21882 | 7.91149 | 39006 ft | 499 kts | 159° |
| 2026-05-04 18:21 | 47.06959 | 8.01438 | 39009 ft | 501 kts | 159° |
| 2026-05-04 18:22 | 46.85439 | 8.16169 | 39013 ft | 501 kts | 159° |
| 2026-05-04 18:22 | 46.60125 | 8.33326 | 39031 ft | 499 kts | 159° |
| 2026-05-04 18:23 | 46.35296 | 8.49984 | 39767 ft | 498 kts | 159° |
| 2026-05-04 18:23 | 46.22676 | 8.58387 | 40325 ft | 499 kts | 159° |
| 2026-05-04 18:23 | 46.10082 | 8.66787 | 41099 ft | 500 kts | 154° |
| 2026-05-04 18:24 | 45.98422 | 8.77964 | 41609 ft | 504 kts | 151° |
| 2026-05-04 18:24 | 45.90527 | 8.85500 | 42075 ft | 505 kts | 150° |
| 2026-05-04 18:24 | 45.74958 | 9.00196 | 42899 ft | 504 kts | 150° |
| 2026-05-04 18:24 | 45.63269 | 9.11176 | 43041 ft | 511 kts | 150° |
| 2026-05-04 18:25 | 45.44327 | 9.28857 | 43040 ft | 507 kts | 150° |
| 2026-05-04 18:25 | 45.20901 | 9.50531 | 43047 ft | 507 kts | 150° |
| 2026-05-04 18:26 | 44.96993 | 9.72429 | 43045 ft | 508 kts | 151° |
| 2026-05-04 18:26 | 44.73226 | 9.93979 | 43083 ft | 509 kts | 151° |
| 2026-05-04 18:27 | 44.49372 | 10.15387 | 43120 ft | 509 kts | 152° |
| 2026-05-04 18:27 | 44.23422 | 10.29442 | 43142 ft | 503 kts | 163° |
| 2026-05-04 18:28 | 44.02543 | 10.40430 | 43150 ft | 505 kts | 163° |
| 2026-05-04 18:28 | 43.89476 | 10.47238 | 43119 ft | 505 kts | 163° |
| 2026-05-04 18:29 | 43.77111 | 10.53653 | 43105 ft | 505 kts | 163° |
| 2026-05-04 18:29 | 43.63952 | 10.59822 | 43103 ft | 506 kts | 165° |
| 2026-05-04 18:30 | 43.50554 | 10.66029 | 42451 ft | 509 kts | 166° |
| 2026-05-04 18:30 | 43.47023 | 10.67664 | 41838 ft | 502 kts | 166° |
| 2026-05-04 18:30 | 43.43715 | 10.69192 | 41213 ft | 498 kts | 166° |
| 2026-05-04 18:31 | 43.40442 | 10.70698 | 40570 ft | 494 kts | 166° |
| 2026-05-04 18:31 | 43.37188 | 10.72194 | 39928 ft | 493 kts | 167° |
| 2026-05-04 18:31 | 43.33922 | 10.73695 | 39261 ft | 496 kts | 167° |
| 2026-05-04 18:31 | 43.30628 | 10.75207 | 38523 ft | 502 kts | 167° |
| 2026-05-04 18:32 | 43.27316 | 10.76729 | 37792 ft | 503 kts | 167° |
| 2026-05-04 18:32 | 43.23990 | 10.78257 | 37055 ft | 504 kts | 167° |
| 2026-05-04 18:32 | 43.20665 | 10.79778 | 36276 ft | 505 kts | 168° |
| 2026-05-04 18:32 | 43.17315 | 10.81309 | 35474 ft | 506 kts | 168° |
| 2026-05-04 18:33 | 43.13981 | 10.82832 | 34631 ft | 507 kts | 168° |
| 2026-05-04 18:33 | 43.10626 | 10.84363 | 33733 ft | 507 kts | 168° |
| 2026-05-04 18:33 | 43.07286 | 10.85884 | 32821 ft | 507 kts | 168° |
| 2026-05-04 18:33 | 43.03943 | 10.87407 | 31899 ft | 502 kts | 168° |
| 2026-05-04 18:34 | 43.00636 | 10.88914 | 30918 ft | 498 kts | 168° |
| 2026-05-04 18:34 | 42.95716 | 10.91144 | 29381 ft | 491 kts | 167° |
| 2026-05-04 18:34 | 42.89402 | 10.94015 | 28408 ft | 460 kts | 167° |
| 2026-05-04 18:34 | 42.85322 | 10.95857 | 28267 ft | 457 kts | 166° |
| 2026-05-04 18:35 | 42.82356 | 10.97669 | 28173 ft | 478 kts | 154° |
| 2026-05-04 18:35 | 42.79612 | 11.00281 | 27683 ft | 486 kts | 143° |
| 2026-05-04 18:35 | 42.77300 | 11.03613 | 27048 ft | 480 kts | 130° |
| 2026-05-04 18:35 | 42.75456 | 11.07365 | 26398 ft | 471 kts | 126° |
| 2026-05-04 18:36 | 42.73716 | 11.11086 | 25774 ft | 463 kts | 125° |
| 2026-05-04 18:36 | 42.72011 | 11.14713 | 25170 ft | 457 kts | 125° |
| 2026-05-04 18:36 | 42.70290 | 11.18334 | 24564 ft | 453 kts | 125° |
| 2026-05-04 18:36 | 42.68593 | 11.21901 | 23961 ft | 447 kts | 125° |
| 2026-05-04 18:37 | 42.66930 | 11.25418 | 23335 ft | 437 kts | 125° |
| 2026-05-04 18:37 | 42.65289 | 11.28879 | 22763 ft | 437 kts | 125° |
| 2026-05-04 18:37 | 42.63633 | 11.32355 | 22189 ft | 437 kts | 125° |
| 2026-05-04 18:37 | 42.62007 | 11.35772 | 21619 ft | 426 kts | 125° |
| 2026-05-04 18:38 | 42.60399 | 11.39148 | 21066 ft | 425 kts | 125° |
| 2026-05-04 18:38 | 42.58789 | 11.42521 | 20524 ft | 426 kts | 125° |
| 2026-05-04 18:38 | 42.57181 | 11.45886 | 19960 ft | 420 kts | 125° |
| 2026-05-04 18:38 | 42.55592 | 11.48915 | 19460 ft | 409 kts | 134° |
| 2026-05-04 18:39 | 42.53476 | 11.51471 | 18956 ft | 407 kts | 149° |
| 2026-05-04 18:39 | 42.50993 | 11.53257 | 18616 ft | 401 kts | 162° |
| 2026-05-04 18:39 | 42.48372 | 11.54519 | 18221 ft | 401 kts | 163° |
| 2026-05-04 18:39 | 42.45732 | 11.55769 | 17841 ft | 399 kts | 164° |
| 2026-05-04 18:40 | 42.43115 | 11.56984 | 17459 ft | 398 kts | 164° |
| 2026-05-04 18:40 | 42.40510 | 11.58202 | 17102 ft | 394 kts | 164° |
| 2026-05-04 18:40 | 42.37922 | 11.59420 | 16745 ft | 392 kts | 164° |
| 2026-05-04 18:40 | 42.35382 | 11.60608 | 16394 ft | 391 kts | 164° |
| 2026-05-04 18:41 | 42.32809 | 11.61805 | 16042 ft | 390 kts | 164° |
| 2026-05-04 18:41 | 42.30253 | 11.62997 | 15677 ft | 388 kts | 164° |
| 2026-05-04 18:41 | 42.27701 | 11.64188 | 15230 ft | 386 kts | 164° |
| 2026-05-04 18:41 | 42.25157 | 11.65308 | 14856 ft | 381 kts | 167° |
| 2026-05-04 18:42 | 42.22619 | 11.66370 | 14509 ft | 382 kts | 165° |
| 2026-05-04 18:42 | 42.20097 | 11.67524 | 14158 ft | 382 kts | 165° |
| 2026-05-04 18:42 | 42.17577 | 11.68630 | 13795 ft | 379 kts | 165° |
| 2026-05-04 18:42 | 42.15056 | 11.69688 | 13435 ft | 376 kts | 165° |
| 2026-05-04 18:43 | 42.12585 | 11.70738 | 13087 ft | 373 kts | 165° |
| 2026-05-04 18:43 | 42.10110 | 11.71826 | 12745 ft | 371 kts | 162° |
| 2026-05-04 18:43 | 42.07881 | 11.73585 | 12425 ft | 375 kts | 141° |
| 2026-05-04 18:43 | 42.06243 | 11.76316 | 12108 ft | 378 kts | 120° |
| 2026-05-04 18:44 | 42.05421 | 11.79597 | 11811 ft | 379 kts | 99° |
| 2026-05-04 18:44 | 42.05366 | 11.81927 | 11622 ft | 379 kts | 85° |
| 2026-05-04 18:44 | 42.06483 | 11.86354 | 11261 ft | 377 kts | 57° |
| 2026-05-04 18:44 | 42.08257 | 11.88903 | 11026 ft | 373 kts | 34° |
| 2026-05-04 18:45 | 42.10592 | 11.90351 | 11055 ft | 373 kts | 12° |
| 2026-05-04 18:45 | 42.13224 | 11.90534 | 11040 ft | 368 kts | 349° |
| 2026-05-04 18:45 | 42.15629 | 11.89417 | 11041 ft | 365 kts | 329° |
| 2026-05-04 18:45 | 42.17733 | 11.87518 | 11032 ft | 363 kts | 321° |
| 2026-05-04 18:46 | 42.19772 | 11.85508 | 11015 ft | 363 kts | 322° |
| 2026-05-04 18:46 | 42.21862 | 11.83649 | 11010 ft | 365 kts | 327° |
| 2026-05-04 18:46 | 42.24120 | 11.82070 | 11011 ft | 366 kts | 335° |
| 2026-05-04 18:46 | 42.26548 | 11.80992 | 11014 ft | 368 kts | 343° |
| 2026-05-04 18:47 | 42.29110 | 11.80688 | 11014 ft | 372 kts | 5° |
| 2026-05-04 18:47 | 42.31488 | 11.81656 | 11018 ft | 347 kts | 28° |
| 2026-05-04 18:47 | 42.33205 | 11.83722 | 11019 ft | 321 kts | 57° |
| 2026-05-04 18:47 | 42.34111 | 11.86395 | 11001 ft | 309 kts | 74° |
| 2026-05-04 18:48 | 42.34518 | 11.89219 | 11000 ft | 304 kts | 93° |
| 2026-05-04 18:48 | 42.34121 | 11.92002 | 10911 ft | 304 kts | 114° |
| 2026-05-04 18:48 | 42.32942 | 11.94326 | 10367 ft | 297 kts | 139° |
| 2026-05-04 18:48 | 42.31241 | 11.95793 | 9870 ft | 286 kts | 161° |
| 2026-05-04 18:49 | 42.29376 | 11.96598 | 9382 ft | 279 kts | 165° |
| 2026-05-04 18:49 | 42.27523 | 11.97339 | 8909 ft | 276 kts | 165° |
| 2026-05-04 18:49 | 42.25697 | 11.98104 | 8460 ft | 273 kts | 164° |
| 2026-05-04 18:49 | 42.23904 | 11.98880 | 8012 ft | 270 kts | 164° |
| 2026-05-04 18:50 | 42.22119 | 11.99645 | 7557 ft | 267 kts | 164° |
| 2026-05-04 18:50 | 42.20354 | 12.00395 | 7122 ft | 266 kts | 164° |
| 2026-05-04 18:50 | 42.18595 | 12.01141 | 6704 ft | 264 kts | 163° |
| 2026-05-04 18:50 | 42.16855 | 12.01884 | 6262 ft | 261 kts | 163° |
| 2026-05-04 18:51 | 42.15149 | 12.02615 | 5825 ft | 253 kts | 163° |
| 2026-05-04 18:51 | 42.13518 | 12.03310 | 5414 ft | 245 kts | 163° |
| 2026-05-04 18:51 | 42.11959 | 12.04115 | 5024 ft | 238 kts | 149° |
| 2026-05-04 18:51 | 42.10736 | 12.05616 | 4629 ft | 232 kts | 135° |
| 2026-05-04 18:52 | 42.09687 | 12.07144 | 4294 ft | 218 kts | 135° |
| 2026-05-04 18:52 | 42.08693 | 12.08622 | 4074 ft | 203 kts | 135° |
| 2026-05-04 18:52 | 42.07791 | 12.09952 | 4063 ft | 182 kts | 135° |
| 2026-05-04 18:52 | 42.06973 | 12.11146 | 4066 ft | 160 kts | 136° |
| 2026-05-04 18:53 | 42.06263 | 12.12185 | 4068 ft | 144 kts | 136° |
| 2026-05-04 18:53 | 42.05602 | 12.13147 | 4071 ft | 140 kts | 136° |
| 2026-05-04 18:53 | 42.04948 | 12.14103 | 4076 ft | 138 kts | 136° |
| 2026-05-04 18:53 | 42.04294 | 12.15061 | 4080 ft | 138 kts | 136° |
| 2026-05-04 18:54 | 42.03636 | 12.16022 | 4018 ft | 144 kts | 136° |
| 2026-05-04 18:54 | 42.02959 | 12.17014 | 3885 ft | 142 kts | 136° |
| 2026-05-04 18:54 | 42.02288 | 12.17995 | 3720 ft | 142 kts | 136° |
| 2026-05-04 18:54 | 42.01542 | 12.18813 | 3490 ft | 136 kts | 149° |
| 2026-05-04 18:55 | 42.00676 | 12.19305 | 3321 ft | 136 kts | 163° |
| 2026-05-04 18:55 | 41.98876 | 12.20139 | 2956 ft | 138 kts | 163° |
| 2026-05-04 18:55 | 41.97959 | 12.20527 | 2777 ft | 138 kts | 163° |
| 2026-05-04 18:56 | 41.97049 | 12.20909 | 2592 ft | 136 kts | 164° |
| 2026-05-04 18:56 | 41.96159 | 12.21283 | 2413 ft | 137 kts | 164° |
| 2026-05-04 18:56 | 41.95253 | 12.21663 | 2228 ft | 137 kts | 163° |
| 2026-05-04 18:56 | 41.94355 | 12.22041 | 2040 ft | 134 kts | 163° |
| 2026-05-04 18:57 | 41.93471 | 12.22411 | 1871 ft | 131 kts | 164° |
| 2026-05-04 18:57 | 41.92620 | 12.22769 | 1702 ft | 129 kts | 163° |
| 2026-05-04 18:57 | 41.91744 | 12.23149 | 1518 ft | 130 kts | 163° |
| 2026-05-04 18:57 | 41.90892 | 12.23504 | 1342 ft | 129 kts | 163° |
| 2026-05-04 18:58 | 41.90038 | 12.23864 | 1170 ft | 130 kts | 163° |
| 2026-05-04 18:58 | 41.89164 | 12.24228 | 1027 ft | 129 kts | 165° |
| 2026-05-04 18:58 | 41.88310 | 12.24571 | 852 ft | 131 kts | 164° |
| 2026-05-04 18:58 | 41.87443 | 12.24953 | 630 ft | 131 kts | 162° |
| 2026-05-04 18:59 | 41.86586 | 12.25328 | 470 ft | 129 kts | 163° |
| 2026-05-04 18:59 | 41.85711 | 12.25690 | 281 ft | 131 kts | 163° |
| 2026-05-04 18:59 | 41.84822 | 12.26062 | 104 ft | 136 kts | 162° |
| 2026-05-04 18:59 | 41.83958 | 12.26411 | 19 ft | 115 kts | 162° |
| 2026-05-04 19:00 | 41.83130 | 12.26791 | 25 ft | 147 kts | 171° |
| 2026-05-04 19:00 | 41.82230 | 12.27122 | 16 ft | 103 kts | 161° |
| 2026-05-04 19:00 | 41.81747 | 12.27323 | 20 ft | 47 kts | 161° |
| 2026-05-04 19:00 | 41.81607 | 12.27397 | 22 ft | 24 kts | 161° |
| 2026-05-04 19:01 | 41.81507 | 12.27410 | 19 ft | 12 kts | 183° |
| 2026-05-04 19:02 | 41.81431 | 12.27391 | 19 ft | 13 kts | 199° |
| 2026-05-04 19:02 | 41.81384 | 12.27345 | 20 ft | 6 kts | 231° |
| 2026-05-04 19:02 | 41.81382 | 12.27341 | 20 ft | 1 kts | 234° |
| 2026-05-04 19:02 | 41.81376 | 12.27329 | 21 ft | 0 kts | 237° |
| 2026-05-04 19:03 | 41.81368 | 12.27311 | 21 ft | 2 kts | 239° |
| 2026-05-04 19:03 | 41.81368 | 12.27310 | 21 ft | 1 kts | 239° |